• Join FlightAware (Why Join?)
  • Login
  • US Flag 
04:46AM EST


 

Airport Tracker/Info


-or-


 

Live Flight TrackerFlight Track Log ✈ ASQ6108 ✈ 12-May-2013 ✈ KICT - KDEN

Flight Track Log - Related Links

Times and Time Zones

All times are in EDT time to prevent confusion due to time zone crossing. See the ASQ6108 flight status page for this flight to view local times or setup timezone preferences in your user account.

Time Position Orientation Groundspeed Altitude Reporting Facility
EDT Latitude Longitude Course Direction KTS MPH feet Rate Location/Type
09:16PM 37.6300 -97.4506 235° Southwest 207 238 2,100  Level Kansas City Center
09:16PM 37.6122 -97.4822 235° Southwest 185 213 3,800 2,580 Climbing Kansas City Center
09:17PM 37.6247 -97.5261 290° West 252 290 5,500 2,820 Climbing Kansas City Center
09:17PM 37.6381 -97.5550 300° West 239 275 6,700 2,880 Climbing Kansas City Center
09:18PM 37.6564 -97.5992 298° West 238 274 8,500 2,520 Climbing Kansas City Center
09:19PM 37.6858 -97.6806 295° West 248 285 11,200 2,160 Climbing Kansas City Center
09:20PM 37.7197 -97.7714 295° West 273 314 13,000 1,500 Climbing Kansas City Center
09:21PM 37.7456 -97.8789 287° West 319 367 14,300 1,560 Climbing Kansas City Center
09:22PM 37.7561 -98.0094 276° West 340 391 16,200 1,560 Climbing Kansas City Center
09:23PM 37.7722 -98.1244 280° West 349 402 17,500 1,680 Climbing Kansas City Center
09:24PM 37.7906 -98.2492 281° West 358 412 19,700 2,040 Climbing Kansas City Center
09:25PM 37.8114 -98.3969 280° West 355 409 21,800 1,860 Climbing Kansas City Center
09:26PM 37.8272 -98.5233 279° West 361 415 23,600 1,800 Climbing Kansas City Center
09:27PM 37.8447 -98.6492 280° West 362 417 25,600 1,800 Climbing Kansas City Center
09:28PM 37.8614 -98.7742 280° West 361 415 27,400 1,680 Climbing Kansas City Center
09:29PM 37.8797 -98.8975 281° West 358 412 29,100 1,680 Climbing Kansas City Center
09:30PM 37.8961 -99.0214 280° West 357 411 30,900 1,380 Climbing Kansas City Center
09:31PM 37.9128 -99.1450 280° West 356 410 32,000 480 Climbing Kansas City Center
09:32PM 37.9294 -99.2794 279° West 384 442 32,000  Level Kansas City Center
09:33PM 37.9497 -99.4286 280° West 419 482 32,000  Level Kansas City Center
09:35PM 37.9739 -99.6197 279° West 447 514 32,000  Level Kansas City Center
09:36PM 37.9936 -99.7722 279° West 454 522 32,000  Level Kansas City Center
09:37PM 38.0128 -99.9247 279° West 457 526 32,000  Level Kansas City Center
09:38PM 38.0358 -100.1033 279° West 460 529 32,000  Level Kansas City Center
09:39PM 38.0544 -100.2558 279° West 460 529 32,000  Level Kansas City Center
09:40PM 38.0761 -100.4325 279° West 458 527 32,000  Level Kansas City Center
09:41PM 38.0942 -100.5828 279° West 455 524 32,000  Level Kansas City Center
09:42PM 38.1147 -100.7592 278° West 456 525 32,000  Level Kansas City Center
09:43PM 38.1322 -100.9100 278° West 454 522 32,000  Level Kansas City Center
09:43PM 38.1375 -100.9603 278° West 457 526 32,000  Level Denver Center
09:44PM 38.1583 -101.1367 279° West 456 525 32,000  Level Denver Center
09:45PM 38.1758 -101.2864 279° West 451 519 32,000  Level Denver Center
09:46PM 38.1947 -101.4386 279° West 456 525 32,000  Level Denver Center
09:47PM 38.2633 -101.5856 301° West 432 497 32,000  Level Denver Center
09:48PM 38.3253 -101.7097 302° West 434 499 32,000  Level Denver Center
09:49PM 38.4081 -101.8744 303° West 433 498 32,000  Level Denver Center
09:50PM 38.4789 -102.0183 302° West 431 496 32,000  Level Denver Center
09:51PM 38.5406 -102.1444 302° West 436 502 32,000  Level Denver Center
09:53PM 38.6108 -102.2875 302° West 428 493 32,000  Level Denver Center
09:54PM 38.6722 -102.4131 302° West 433 498 32,000  Level Denver Center
09:55PM 38.7328 -102.5383 302° West 433 498 32,000  Level Denver Center
09:56PM 38.8031 -102.6831 302° West 429 494 32,000  Level Denver Center
09:57PM 38.8681 -102.8189 302° West 432 497 32,000  Level Denver Center
09:58PM 38.9286 -102.9450 302° West 435 501 32,000  Level Denver Center
09:59PM 38.9989 -103.0917 302° West 434 499 32,000 -840 Level Denver Center
10:00PM 39.0589 -103.2175 302° West 432 497 30,300 -1,920 Descending Denver Center
10:01PM 39.1258 -103.3597 301° West 418 481 28,100 -2,040 Descending Denver Center
10:02PM 39.1819 -103.4786 301° West 408 470 26,200 -2,040 Descending Denver Center
10:03PM 39.2456 -103.6119 302° West 393 452 23,900 -2,040 Descending Denver Center
10:04PM 39.2986 -103.7281 301° West 392 451 22,000 -1,860 Descending Denver Center
10:05PM 39.3567 -103.8536 301° West 368 423 20,100 -1,740 Descending Denver Center
10:06PM 39.4078 -103.9553 303° West 348 400 18,500 -1,440 Descending Denver Center
10:07PM 39.4658 -104.0536 307° West 346 398 17,200 -1,440 Descending Denver Center
10:08PM 39.5242 -104.1578 306° West 332 382 15,600 -1,500 Descending Denver Center
10:09PM 39.5769 -104.2483 307° West 317 365 14,200 -1,260 Descending Denver Center
10:10PM 39.6325 -104.3461 306° West 314 361 13,000 -600 Descending Denver Center
10:11PM 39.6814 -104.4306 307° West 295 339 13,000 -120 Level Denver Center
10:12PM 39.7272 -104.5114 306° West 282 325 12,800 -720 Descending Denver Center
10:13PM 39.7964 -104.5297 348° North 252 290 11,600 -900 Descending Denver Center
10:14PM 39.8617 -104.5247 North 240 276 11,000 -300 Descending Denver Center
10:15PM 39.9353 -104.5214 North 246 283 11,000 -480 Level Denver Center
10:16PM 39.9972 -104.5550 337° Northwest 249 287 10,100 -1,260 Descending Denver Center
10:17PM 40.0178 -104.6328 289° West 226 260 8,500 -1,500 Descending Denver Center
10:18PM 39.9828 -104.6833 228° Southwest 214 246 7,000 -1,140 Descending Denver Center
10:19PM 39.9369 -104.6867 183° South 171 197 6,200 -840 Descending Denver Center
10:20PM 39.8944 -104.6867 180° South 147 169 5,400 -780 Descending Denver Center
10:22PM 39.8617 -104.6732 North  Level Estimated
10:29PM 39.8617 -104.6732 North  Level Estimated
10:30PM 39.8617 -104.6732 North  Level Estimated
10:31PM 39.8617 -104.6732 North  Level Estimated